Time;durP1;ratioP1;P1;durP2;ratioP2;P2;SDS_P1;SDS_P2;PMS_P1;PMS_P2;Temp;Humidity;BMP_temperature;BMP_pressure;BME280_temperature;BME280_humidity;BME280_pressure;Samples;Min_cycle;Max_cycle;Signal;HPM_P1;HPM_P2
2023/08/26 00:00:19;;;;;;;;;;;16.70;99.90;;;;;;5039337;28;20041;-81
2023/08/26 00:02:45;;;;;;;;;;;16.60;99.90;;;;;;5022075;28;20490;-80
2023/08/26 00:05:10;;;;;;;;;;;16.50;99.90;;;;;;5000006;28;19936;-80
2023/08/26 00:07:36;;;;;;;;;;;16.50;99.90;;;;;;5000390;28;20386;-80
2023/08/26 00:10:02;;;;;;;;;;;16.40;99.90;;;;;;5034780;28;19926;-80
2023/08/26 00:12:27;;;;;;;;;;;16.40;99.90;;;;;;5019313;28;20152;-81
2023/08/26 00:14:53;;;;;;;;;;;16.30;99.90;;;;;;5006705;28;19929;-80
2023/08/26 00:17:19;;;;;;;;;;;16.20;99.90;;;;;;5050719;28;19936;-80
2023/08/26 00:19:44;;;;;;;;;;;16.20;99.90;;;;;;5000604;28;19936;-80
2023/08/26 00:22:10;;;;;;;;;;;16.10;99.90;;;;;;5023945;28;19932;-80
2023/08/26 00:24:36;;;;;;;;;;;16.10;99.90;;;;;;5054754;28;19933;-80
2023/08/26 00:27:02;;;;;;;;;;;16.10;99.90;;;;;;5038074;28;19940;-80
2023/08/26 00:29:28;;;;;;;;;;;16.00;99.90;;;;;;5049485;28;19933;-80
2023/08/26 00:31:55;;;;;;;;;;;16.00;99.90;;;;;;5064164;28;22198;-79
2023/08/26 00:34:21;;;;;;;;;;;16.00;99.90;;;;;;5025137;28;19971;-79
2023/08/26 00:36:46;;;;;;;;;;;16.10;99.90;;;;;;5021910;28;19943;-79
2023/08/26 00:39:12;;;;;;;;;;;16.10;99.90;;;;;;5038765;28;20078;-78
2023/08/26 00:41:38;;;;;;;;;;;16.10;99.90;;;;;;5037424;28;19925;-79
2023/08/26 00:44:03;;;;;;;;;;;16.10;99.90;;;;;;5058295;28;19928;-79
2023/08/26 00:46:29;;;;;;;;;;;16.10;99.90;;;;;;5034830;28;19929;-79
2023/08/26 00:48:54;;;;;;;;;;;16.10;99.90;;;;;;5017186;28;19936;-79
2023/08/26 00:51:21;;;;;;;;;;;16.10;99.90;;;;;;5011828;28;20006;-79
2023/08/26 00:53:47;;;;;;;;;;;16.20;99.90;;;;;;5037651;28;19985;-79
2023/08/26 00:56:12;;;;;;;;;;;16.20;99.90;;;;;;5032007;28;19964;-79
2023/08/26 00:58:38;;;;;;;;;;;16.20;99.90;;;;;;5017826;28;19980;-79
2023/08/26 01:01:04;;;;;;;;;;;16.20;99.90;;;;;;5020451;28;20001;-79
2023/08/26 01:03:29;;;;;;;;;;;16.20;99.90;;;;;;5018071;28;20403;-79
2023/08/26 01:05:55;;;;;;;;;;;16.20;99.90;;;;;;5002509;28;19932;-79
2023/08/26 01:08:21;;;;;;;;;;;16.20;99.90;;;;;;5014350;28;19952;-79
2023/08/26 01:10:55;;;;;;;;;;;16.20;99.90;;;;;;5047536;28;20019;-78
2023/08/26 01:13:25;;;;;;;;;;;16.20;99.90;;;;;;5021835;28;19929;-78
2023/08/26 01:15:51;;;;;;;;;;;16.20;99.90;;;;;;5021593;28;19925;-79
2023/08/26 01:18:17;;;;;;;;;;;16.20;99.90;;;;;;5021374;28;19929;-79
2023/08/26 01:20:43;;;;;;;;;;;16.20;99.90;;;;;;5057191;28;19948;-79
2023/08/26 01:23:35;;;;;;;;;;;16.20;99.90;;;;;;5058840;28;19996;-78
2023/08/26 01:26:00;;;;;;;;;;;16.20;99.90;;;;;;5010369;28;19940;-78
2023/08/26 01:28:26;;;;;;;;;;;16.10;99.90;;;;;;5041778;28;19925;-78
2023/08/26 01:30:52;;;;;;;;;;;16.20;99.90;;;;;;5025365;28;19952;-79
2023/08/26 01:33:24;;;;;;;;;;;16.20;99.90;;;;;;5057129;28;20057;-79
2023/08/26 01:35:52;;;;;;;;;;;16.20;99.90;;;;;;5058878;28;20001;-79
2023/08/26 01:38:18;;;;;;;;;;;16.20;99.90;;;;;;5056971;28;19925;-79
2023/08/26 01:40:54;;;;;;;;;;;16.20;99.90;;;;;;5056393;28;19936;-79
2023/08/26 01:43:20;;;;;;;;;;;16.10;99.90;;;;;;5025133;28;19929;-79
2023/08/26 01:45:45;;;;;;;;;;;16.10;99.90;;;;;;5005729;28;19975;-79
2023/08/26 01:48:11;;;;;;;;;;;16.10;99.90;;;;;;5056089;28;19925;-79
2023/08/26 01:50:37;;;;;;;;;;;16.00;99.90;;;;;;5036428;28;19936;-79
2023/08/26 01:53:02;;;;;;;;;;;16.00;99.90;;;;;;5020711;28;19991;-79
2023/08/26 01:55:28;;;;;;;;;;;16.00;99.90;;;;;;5005466;28;19933;-79
2023/08/26 01:57:53;;;;;;;;;;;16.00;99.90;;;;;;5052390;28;19937;-79
2023/08/26 02:00:19;;;;;;;;;;;16.00;99.90;;;;;;5007884;28;20451;-79
2023/08/26 02:02:44;;;;;;;;;;;16.00;99.90;;;;;;5004880;28;19925;-79
2023/08/26 02:05:10;;;;;;;;;;;16.00;99.90;;;;;;5021594;28;20309;-79
2023/08/26 02:07:36;;;;;;;;;;;16.00;99.90;;;;;;5003265;28;19966;-79
2023/08/26 02:10:01;;;;;;;;;;;16.00;99.90;;;;;;5021818;28;19925;-79
2023/08/26 02:12:28;;;;;;;;;;;16.10;99.90;;;;;;5001822;28;19929;-79
2023/08/26 02:14:54;;;;;;;;;;;16.10;99.90;;;;;;5036521;28;19933;-80
2023/08/26 02:17:19;;;;;;;;;;;16.10;99.90;;;;;;5036864;28;20416;-79
2023/08/26 02:19:45;;;;;;;;;;;16.10;99.90;;;;;;5051156;28;19925;-79
2023/08/26 02:22:10;;;;;;;;;;;16.10;99.90;;;;;;5006116;28;19947;-79
2023/08/26 02:24:36;;;;;;;;;;;16.20;99.90;;;;;;5002960;28;19936;-79
2023/08/26 02:27:02;;;;;;;;;;;16.20;99.90;;;;;;5004067;28;19944;-80
2023/08/26 02:29:29;;;;;;;;;;;16.10;99.90;;;;;;5036162;28;19943;-79
2023/08/26 02:31:55;;;;;;;;;;;16.10;99.90;;;;;;5018634;28;19931;-79
2023/08/26 02:34:21;;;;;;;;;;;16.10;99.90;;;;;;5035693;28;19956;-79
2023/08/26 02:36:46;;;;;;;;;;;16.10;99.90;;;;;;5003787;28;19940;-79
2023/08/26 02:39:12;;;;;;;;;;;16.00;99.90;;;;;;5034651;28;19976;-79
2023/08/26 02:41:37;;;;;;;;;;;15.90;99.90;;;;;;5017305;28;19929;-80
2023/08/26 02:44:03;;;;;;;;;;;15.90;99.90;;;;;;5026815;28;20399;-80
2023/08/26 02:46:28;;;;;;;;;;;15.80;99.90;;;;;;5033820;28;19932;-79
2023/08/26 02:48:56;;;;;;;;;;;15.80;99.90;;;;;;5021305;28;19960;-79
2023/08/26 02:51:21;;;;;;;;;;;15.70;99.90;;;;;;5038464;28;19968;-80
2023/08/26 02:53:47;;;;;;;;;;;15.70;99.90;;;;;;5035973;28;19925;-80
2023/08/26 02:56:12;;;;;;;;;;;15.60;99.90;;;;;;5019002;28;19929;-80
2023/08/26 02:58:38;;;;;;;;;;;15.60;99.90;;;;;;5001699;28;19929;-80
2023/08/26 03:01:06;;;;;;;;;;;15.50;99.90;;;;;;5020359;28;20015;-80
2023/08/26 03:03:32;;;;;;;;;;;15.40;99.90;;;;;;5066253;28;19925;-80
2023/08/26 03:05:57;;;;;;;;;;;15.40;99.90;;;;;;5018640;28;20008;-80
2023/08/26 03:08:23;;;;;;;;;;;15.40;99.90;;;;;;5018431;28;19936;-81
2023/08/26 03:11:00;;;;;;;;;;;15.30;99.90;;;;;;5035819;28;19972;-81
2023/08/26 03:13:26;;;;;;;;;;;15.40;99.90;;;;;;5018650;28;19989;-81
2023/08/26 03:15:52;;;;;;;;;;;15.30;99.90;;;;;;5051400;28;19961;-80
2023/08/26 03:18:17;;;;;;;;;;;15.30;99.90;;;;;;5033809;28;19996;-80
2023/08/26 03:20:43;;;;;;;;;;;15.30;99.90;;;;;;5022908;28;19925;-80
2023/08/26 03:23:08;;;;;;;;;;;15.30;99.90;;;;;;5038157;28;19925;-80
2023/08/26 03:25:38;;;;;;;;;;;15.20;99.90;;;;;;5021045;28;21204;-80
2023/08/26 03:28:03;;;;;;;;;;;15.10;99.90;;;;;;5067966;28;19925;-80
2023/08/26 03:30:29;;;;;;;;;;;15.20;99.90;;;;;;5034658;28;20031;-81
2023/08/26 03:32:55;;;;;;;;;;;15.10;99.90;;;;;;5034792;28;19929;-80
2023/08/26 03:35:20;;;;;;;;;;;15.10;99.90;;;;;;5035459;28;20408;-80
2023/08/26 03:37:46;;;;;;;;;;;15.00;99.90;;;;;;5050909;28;19936;-81
2023/08/26 03:40:11;;;;;;;;;;;15.00;99.90;;;;;;5022592;28;19940;-81
2023/08/26 03:42:38;;;;;;;;;;;15.00;99.90;;;;;;5001614;28;19976;-80
2023/08/26 03:45:04;;;;;;;;;;;15.00;99.90;;;;;;5035651;28;20277;-80
2023/08/26 03:47:30;;;;;;;;;;;15.10;99.90;;;;;;5052405;28;20451;-81
2023/08/26 03:49:56;;;;;;;;;;;15.10;99.90;;;;;;5039190;28;19932;-80
2023/08/26 03:52:22;;;;;;;;;;;15.10;99.90;;;;;;5020811;28;19940;-80
2023/08/26 03:54:47;;;;;;;;;;;15.10;99.90;;;;;;5034827;28;19926;-80
2023/08/26 03:57:13;;;;;;;;;;;15.10;99.90;;;;;;5036488;28;19925;-80
2023/08/26 03:59:38;;;;;;;;;;;15.20;99.90;;;;;;5055870;28;20019;-80
2023/08/26 04:02:04;;;;;;;;;;;15.20;99.90;;;;;;5022130;28;19929;-80
2023/08/26 04:04:31;;;;;;;;;;;15.20;99.90;;;;;;5005266;28;19936;-80
2023/08/26 04:06:57;;;;;;;;;;;15.30;99.90;;;;;;5006273;28;19925;-80
2023/08/26 04:09:23;;;;;;;;;;;15.20;99.90;;;;;;5038857;28;19925;-80
2023/08/26 04:11:49;;;;;;;;;;;15.20;99.90;;;;;;5067283;28;19933;-80
2023/08/26 04:14:14;;;;;;;;;;;15.20;99.90;;;;;;5034482;28;19947;-81
2023/08/26 04:16:40;;;;;;;;;;;15.30;99.90;;;;;;5015367;28;19972;-80
2023/08/26 04:19:06;;;;;;;;;;;15.20;99.90;;;;;;5016701;28;19929;-80
2023/08/26 04:21:31;;;;;;;;;;;15.20;99.90;;;;;;5033350;28;19983;-80
2023/08/26 04:23:57;;;;;;;;;;;15.30;99.90;;;;;;5037844;28;19972;-80
2023/08/26 04:26:23;;;;;;;;;;;15.20;99.90;;;;;;5032311;28;19979;-80
2023/08/26 04:28:49;;;;;;;;;;;15.20;99.90;;;;;;5000524;28;19929;-80
2023/08/26 04:31:14;;;;;;;;;;;15.10;99.90;;;;;;5017174;28;19933;-80
2023/08/26 04:33:40;;;;;;;;;;;15.10;99.90;;;;;;4998888;28;19932;-80
2023/08/26 04:36:06;;;;;;;;;;;15.20;99.90;;;;;;5036637;28;20333;-80
2023/08/26 04:38:32;;;;;;;;;;;15.20;99.90;;;;;;5017712;28;19933;-80
2023/08/26 04:40:58;;;;;;;;;;;15.20;99.90;;;;;;5016973;28;19933;-80
2023/08/26 04:43:25;;;;;;;;;;;15.20;99.90;;;;;;5021749;28;19924;-81
2023/08/26 04:45:52;;;;;;;;;;;15.20;99.90;;;;;;5039063;28;19924;-81
2023/08/26 04:48:18;;;;;;;;;;;15.20;99.90;;;;;;5016620;28;19925;-80
2023/08/26 04:50:43;;;;;;;;;;;15.20;99.90;;;;;;5032716;28;19925;-80
2023/08/26 04:53:09;;;;;;;;;;;15.30;99.90;;;;;;5021060;28;19931;-81
2023/08/26 04:55:36;;;;;;;;;;;15.30;99.90;;;;;;5049653;28;19926;-81
2023/08/26 04:58:01;;;;;;;;;;;15.30;99.90;;;;;;5000705;28;19936;-81
2023/08/26 05:00:27;;;;;;;;;;;15.40;99.90;;;;;;5063931;28;19931;-81
2023/08/26 05:02:52;;;;;;;;;;;15.40;99.90;;;;;;5039659;28;19972;-81
2023/08/26 05:05:18;;;;;;;;;;;15.40;99.90;;;;;;5046888;28;19929;-81
2023/08/26 05:07:44;;;;;;;;;;;15.40;99.90;;;;;;5034366;28;19929;-81
2023/08/26 05:10:09;;;;;;;;;;;15.40;99.90;;;;;;5013641;28;20008;-81
2023/08/26 05:12:35;;;;;;;;;;;15.40;99.90;;;;;;5040464;28;19925;-81
2023/08/26 05:15:02;;;;;;;;;;;15.50;99.90;;;;;;5039665;28;19925;-81
2023/08/26 05:17:28;;;;;;;;;;;15.50;99.90;;;;;;5069697;28;19929;-81
2023/08/26 05:19:53;;;;;;;;;;;15.50;99.90;;;;;;5052993;28;19936;-80
2023/08/26 05:22:19;;;;;;;;;;;15.50;99.90;;;;;;5021058;28;19925;-81
2023/08/26 05:24:44;;;;;;;;;;;15.50;99.90;;;;;;5033359;28;19925;-82
2023/08/26 05:27:10;;;;;;;;;;;15.50;99.90;;;;;;5021530;28;19925;-81
2023/08/26 05:29:36;;;;;;;;;;;15.50;99.90;;;;;;5035659;28;19972;-82
2023/08/26 05:32:01;;;;;;;;;;;15.50;99.90;;;;;;5037906;28;20060;-81
2023/08/26 05:34:27;;;;;;;;;;;15.60;99.90;;;;;;5036347;28;19929;-81
2023/08/26 05:36:53;;;;;;;;;;;15.60;99.90;;;;;;5021115;28;20032;-81
2023/08/26 05:39:18;;;;;;;;;;;15.60;99.90;;;;;;5061747;28;19925;-81
2023/08/26 05:41:44;;;;;;;;;;;15.60;99.90;;;;;;5034527;28;19929;-81
2023/08/26 05:44:09;;;;;;;;;;;15.60;99.90;;;;;;5040563;28;19948;-81
2023/08/26 05:46:35;;;;;;;;;;;15.60;99.90;;;;;;5032492;28;19976;-81
2023/08/26 05:49:01;;;;;;;;;;;15.60;99.90;;;;;;5048178;28;19975;-81
2023/08/26 05:51:27;;;;;;;;;;;15.70;99.90;;;;;;5002080;28;19965;-81
2023/08/26 05:53:53;;;;;;;;;;;15.70;99.90;;;;;;5050262;28;19925;-82
2023/08/26 05:56:18;;;;;;;;;;;15.80;99.90;;;;;;5019488;28;19933;-81
2023/08/26 05:58:44;;;;;;;;;;;15.80;99.90;;;;;;5016733;28;20487;-81
2023/08/26 06:01:09;;;;;;;;;;;15.80;99.90;;;;;;5016313;28;20030;-81
2023/08/26 06:03:35;;;;;;;;;;;15.80;99.90;;;;;;4998562;28;19925;-81
2023/08/26 06:06:03;;;;;;;;;;;15.90;99.90;;;;;;5067201;28;20016;-81
2023/08/26 06:08:29;;;;;;;;;;;15.90;99.90;;;;;;5040927;28;19969;-81
2023/08/26 06:10:55;;;;;;;;;;;15.90;99.90;;;;;;5018800;28;19932;-81
2023/08/26 06:13:21;;;;;;;;;;;15.90;99.90;;;;;;5036127;28;19993;-81
2023/08/26 06:15:52;;;;;;;;;;;16.00;99.90;;;;;;5018143;28;19972;-81
2023/08/26 06:18:18;;;;;;;;;;;16.00;99.90;;;;;;5051776;28;19925;-81
2023/08/26 06:20:43;;;;;;;;;;;16.00;99.90;;;;;;5020045;28;20007;-81
2023/08/26 06:23:09;;;;;;;;;;;16.00;99.90;;;;;;5025012;28;19943;-81
2023/08/26 06:25:34;;;;;;;;;;;16.00;99.90;;;;;;5035507;28;19929;-81
2023/08/26 06:28:00;;;;;;;;;;;16.00;99.90;;;;;;5039586;28;19925;-79
2023/08/26 06:30:26;;;;;;;;;;;16.00;99.90;;;;;;5003862;28;19925;-81
2023/08/26 06:32:51;;;;;;;;;;;15.90;99.90;;;;;;5016304;28;19925;-80
2023/08/26 06:35:17;;;;;;;;;;;15.90;99.90;;;;;;5001142;28;19933;-80
2023/08/26 06:37:42;;;;;;;;;;;15.90;99.90;;;;;;5050704;28;20010;-81
2023/08/26 06:40:08;;;;;;;;;;;15.90;99.90;;;;;;5020821;28;19936;-82
2023/08/26 06:42:34;;;;;;;;;;;15.90;99.90;;;;;;5035620;28;20396;-81
2023/08/26 06:44:59;;;;;;;;;;;16.00;99.90;;;;;;5051538;28;19968;-81
2023/08/26 06:47:25;;;;;;;;;;;16.00;99.90;;;;;;5015416;28;19929;-81
2023/08/26 06:49:51;;;;;;;;;;;16.00;99.90;;;;;;5011239;28;20415;-81
2023/08/26 06:52:16;;;;;;;;;;;16.00;99.90;;;;;;5036242;28;19929;-80
2023/08/26 06:54:42;;;;;;;;;;;16.00;99.90;;;;;;5033834;28;19932;-81
2023/08/26 06:57:07;;;;;;;;;;;16.10;99.90;;;;;;5019040;28;20012;-80
2023/08/26 06:59:33;;;;;;;;;;;16.20;99.90;;;;;;5016359;28;19947;-80
2023/08/26 07:01:58;;;;;;;;;;;16.30;99.90;;;;;;5068387;28;19945;-79
2023/08/26 07:04:24;;;;;;;;;;;16.30;99.90;;;;;;5019772;28;19933;-80
2023/08/26 07:06:50;;;;;;;;;;;16.20;99.90;;;;;;5021060;28;20102;-81
2023/08/26 07:09:16;;;;;;;;;;;16.30;99.90;;;;;;5050281;28;19936;-81
2023/08/26 07:11:41;;;;;;;;;;;16.30;99.90;;;;;;5058871;28;19925;-81
2023/08/26 07:14:07;;;;;;;;;;;16.30;99.90;;;;;;5040042;28;19933;-81
2023/08/26 07:16:33;;;;;;;;;;;16.40;99.90;;;;;;5037647;28;19925;-81
2023/08/26 07:18:58;;;;;;;;;;;16.50;99.90;;;;;;5023028;28;19955;-81
2023/08/26 07:21:24;;;;;;;;;;;16.50;99.90;;;;;;5073478;28;19952;-81
2023/08/26 07:23:50;;;;;;;;;;;16.60;99.90;;;;;;5039528;28;19929;-82
2023/08/26 07:26:15;;;;;;;;;;;16.60;99.90;;;;;;5041189;28;19924;-80
2023/08/26 07:28:41;;;;;;;;;;;16.70;99.90;;;;;;5039442;28;19925;-80
2023/08/26 07:31:08;;;;;;;;;;;16.80;99.90;;;;;;5033824;28;19990;-81
2023/08/26 07:33:34;;;;;;;;;;;16.80;99.90;;;;;;5021998;28;19925;-80
2023/08/26 07:36:02;;;;;;;;;;;16.90;99.90;;;;;;5037665;28;19925;-80
2023/08/26 07:38:28;;;;;;;;;;;17.20;99.90;;;;;;5017707;28;19964;-80
2023/08/26 07:40:53;;;;;;;;;;;17.50;99.90;;;;;;5034310;28;19936;-81
2023/08/26 07:43:19;;;;;;;;;;;17.70;99.90;;;;;;5002792;28;19929;-80
2023/08/26 07:45:45;;;;;;;;;;;17.90;99.90;;;;;;5047195;28;19988;-81
2023/08/26 07:48:10;;;;;;;;;;;18.10;99.90;;;;;;5017455;28;19929;-80
2023/08/26 07:50:36;;;;;;;;;;;18.20;99.90;;;;;;5024511;28;20424;-81
2023/08/26 07:53:01;;;;;;;;;;;18.60;99.90;;;;;;5001809;28;20005;-81
2023/08/26 07:55:27;;;;;;;;;;;18.80;99.90;;;;;;5063544;28;19929;-81
2023/08/26 07:57:53;;;;;;;;;;;18.90;99.90;;;;;;5017571;28;19929;-81
2023/08/26 08:00:18;;;;;;;;;;;19.10;99.90;;;;;;5006557;28;19925;-80
2023/08/26 08:02:44;;;;;;;;;;;19.10;99.90;;;;;;5028473;28;20404;-81
2023/08/26 08:05:09;;;;;;;;;;;19.10;99.90;;;;;;5004920;28;20315;-81
2023/08/26 08:07:35;;;;;;;;;;;19.00;99.90;;;;;;5021733;28;19929;-81
2023/08/26 08:10:00;;;;;;;;;;;18.90;99.90;;;;;;5038637;28;19925;-80
2023/08/26 08:12:26;;;;;;;;;;;18.80;99.90;;;;;;5038510;28;20021;-81
2023/08/26 08:14:52;;;;;;;;;;;18.80;99.90;;;;;;5053593;28;20424;-82
2023/08/26 08:17:18;;;;;;;;;;;18.60;99.90;;;;;;5037670;28;19945;-81
2023/08/26 08:19:45;;;;;;;;;;;18.50;99.90;;;;;;5039996;28;19964;-81
2023/08/26 08:22:12;;;;;;;;;;;18.40;99.90;;;;;;5037586;28;20023;-81
2023/08/26 08:24:37;;;;;;;;;;;18.70;99.90;;;;;;5070434;28;19929;-80
2023/08/26 08:27:03;;;;;;;;;;;19.30;99.90;;;;;;5039248;28;19935;-81
2023/08/26 08:29:29;;;;;;;;;;;19.90;99.90;;;;;;5020870;28;19967;-80
2023/08/26 08:31:55;;;;;;;;;;;20.30;99.90;;;;;;5033486;28;19929;-81
2023/08/26 08:34:21;;;;;;;;;;;20.70;99.90;;;;;;5035069;28;19975;-81
2023/08/26 08:36:46;;;;;;;;;;;20.80;99.90;;;;;;5026586;28;19987;-81
2023/08/26 08:39:12;;;;;;;;;;;21.00;99.90;;;;;;5033738;28;19929;-78
2023/08/26 08:41:40;;;;;;;;;;;21.20;99.90;;;;;;5052370;28;19952;-79
2023/08/26 08:44:13;;;;;;;;;;;21.50;99.90;;;;;;5038525;28;19932;-85
2023/08/26 08:46:39;;;;;;;;;;;22.00;99.90;;;;;;5019204;28;20017;-83
2023/08/26 08:49:05;;;;;;;;;;;22.50;99.90;;;;;;5022161;28;19929;-85
2023/08/26 08:51:32;;;;;;;;;;;22.80;99.90;;;;;;5053565;28;19925;-85
2023/08/26 08:53:58;;;;;;;;;;;23.00;99.90;;;;;;5003602;28;20036;-86
2023/08/26 08:56:25;;;;;;;;;;;22.80;99.90;;;;;;5020703;28;19929;-87
2023/08/26 08:58:51;;;;;;;;;;;22.30;99.90;;;;;;5004364;28;19932;-86
2023/08/26 09:01:20;;;;;;;;;;;21.60;99.90;;;;;;5018133;28;20023;-88
2023/08/26 09:03:46;;;;;;;;;;;21.20;99.90;;;;;;5035526;28;20329;-87
2023/08/26 09:06:12;;;;;;;;;;;20.90;99.90;;;;;;5017211;28;19940;-85
2023/08/26 09:08:39;;;;;;;;;;;20.90;99.90;;;;;;5021183;28;19925;-87
2023/08/26 09:11:05;;;;;;;;;;;21.50;99.90;;;;;;5019838;28;19933;-86
2023/08/26 09:13:30;;;;;;;;;;;22.00;99.90;;;;;;5006625;28;20700;-87
2023/08/26 09:15:56;;;;;;;;;;;22.60;99.90;;;;;;5031906;28;19925;-87
2023/08/26 09:18:22;;;;;;;;;;;22.90;99.90;;;;;;5048476;28;19969;-88
2023/08/26 09:20:48;;;;;;;;;;;22.90;99.90;;;;;;5019362;28;19925;-87
2023/08/26 09:23:14;;;;;;;;;;;22.70;99.90;;;;;;5036942;28;19968;-88
2023/08/26 09:25:50;;;;;;;;;;;22.70;99.90;;;;;;5010922;28;19933;-86
2023/08/26 09:28:16;;;;;;;;;;;23.10;99.90;;;;;;5045040;28;19957;-87
2023/08/26 09:30:41;;;;;;;;;;;23.20;99.90;;;;;;5038114;28;19971;-86
2023/08/26 09:33:13;;;;;;;;;;;22.80;99.90;;;;;;5015661;28;19971;-88
2023/08/26 09:35:46;;;;;;;;;;;22.30;99.90;;;;;;5036790;28;19925;-87
2023/08/26 09:38:12;;;;;;;;;;;21.90;99.90;;;;;;5029219;28;19975;-89
2023/08/26 09:40:38;;;;;;;;;;;21.70;99.90;;;;;;5023206;28;19929;-86
2023/08/26 09:43:04;;;;;;;;;;;21.70;99.90;;;;;;5021149;28;19929;-88
2023/08/26 09:45:35;;;;;;;;;;;22.20;99.90;;;;;;5009276;28;19936;-85
2023/08/26 09:48:00;;;;;;;;;;;22.60;99.90;;;;;;5040955;28;19981;-87
2023/08/26 09:50:32;;;;;;;;;;;23.10;99.90;;;;;;5017514;28;19932;-86
2023/08/26 09:52:58;;;;;;;;;;;23.50;99.90;;;;;;5030461;28;19926;-88
2023/08/26 09:55:24;;;;;;;;;;;23.80;99.90;;;;;;5017324;28;19991;-89
2023/08/26 09:57:51;;;;;;;;;;;24.20;99.90;;;;;;5003904;28;19975;-89
2023/08/26 10:00:17;;;;;;;;;;;24.60;99.90;;;;;;5002544;28;19941;-88
2023/08/26 10:02:50;;;;;;;;;;;24.80;99.90;;;;;;5021017;28;19929;-91
2023/08/26 10:05:16;;;;;;;;;;;25.00;99.90;;;;;;5036576;28;20004;-90
2023/08/26 10:07:46;;;;;;;;;;;25.10;99.90;;;;;;5004581;28;20004;-91
2023/08/26 10:10:16;;;;;;;;;;;25.10;99.90;;;;;;5016096;28;19940;-87
2023/08/26 10:12:43;;;;;;;;;;;24.60;99.90;;;;;;5068415;28;20312;-89
2023/08/26 10:15:13;;;;;;;;;;;23.70;99.90;;;;;;5034517;28;19936;-89
2023/08/26 10:17:43;;;;;;;;;;;23.00;99.90;;;;;;5053323;28;19929;-90
2023/08/26 10:20:09;;;;;;;;;;;22.20;99.90;;;;;;5049011;28;19925;-88
2023/08/26 10:22:36;;;;;;;;;;;22.00;99.90;;;;;;5020248;28;19929;-87
2023/08/26 10:25:02;;;;;;;;;;;22.20;99.90;;;;;;5003083;28;20025;-86
2023/08/26 10:27:28;;;;;;;;;;;22.50;99.90;;;;;;5004970;28;19928;-90
2023/08/26 10:29:55;;;;;;;;;;;22.80;99.90;;;;;;5052691;28;20340;-88
2023/08/26 10:32:22;;;;;;;;;;;23.10;99.90;;;;;;5001839;28;19940;-87
2023/08/26 10:34:51;;;;;;;;;;;23.40;99.90;;;;;;5033206;28;19925;-86
2023/08/26 10:37:17;;;;;;;;;;;23.70;99.90;;;;;;5002305;28;19962;-90
2023/08/26 10:39:43;;;;;;;;;;;23.90;99.90;;;;;;5002017;28;20023;-91
2023/08/26 10:42:18;;;;;;;;;;;23.80;99.90;;;;;;4998816;28;19943;-88
2023/08/26 10:44:48;;;;;;;;;;;23.60;99.90;;;;;;5033706;28;19932;-88
2023/08/26 10:47:32;;;;;;;;;;;23.20;99.90;;;;;;5019743;28;19925;-89
2023/08/26 10:50:20;;;;;;;;;;;22.90;99.90;;;;;;5053719;28;20366;-88
2023/08/26 10:52:56;;;;;;;;;;;22.90;99.90;;;;;;5047386;28;19964;-90
2023/08/26 10:55:26;;;;;;;;;;;23.10;99.90;;;;;;5018522;28;19939;-90
2023/08/26 10:58:02;;;;;;;;;;;23.50;99.90;;;;;;5018641;28;19932;-86
2023/08/26 11:00:28;;;;;;;;;;;23.50;99.90;;;;;;5038976;28;20365;-87
2023/08/26 11:02:54;;;;;;;;;;;23.40;99.90;;;;;;5014972;28;19933;-89
2023/08/26 11:05:26;;;;;;;;;;;23.20;99.90;;;;;;5027329;28;19933;-90
2023/08/26 11:07:52;;;;;;;;;;;23.00;99.90;;;;;;5021822;28;19925;-89
2023/08/26 11:10:24;;;;;;;;;;;22.70;99.90;;;;;;5030683;28;20615;-88
2023/08/26 11:12:50;;;;;;;;;;;22.50;99.90;;;;;;5012776;28;19940;-90
2023/08/26 11:15:15;;;;;;;;;;;22.30;99.90;;;;;;5003331;28;19925;-88
2023/08/26 11:17:42;;;;;;;;;;;22.00;99.90;;;;;;5018144;28;20027;-90
2023/08/26 11:20:08;;;;;;;;;;;22.00;99.90;;;;;;5048720;28;19935;-88
2023/08/26 11:22:34;;;;;;;;;;;22.30;99.90;;;;;;5017084;28;20023;-93
2023/08/26 11:25:00;;;;;;;;;;;22.40;99.90;;;;;;5015483;28;19933;-88
2023/08/26 11:27:25;;;;;;;;;;;22.40;99.90;;;;;;5003556;28;20530;-92
2023/08/26 11:29:51;;;;;;;;;;;22.50;99.90;;;;;;5018587;28;19932;-91
2023/08/26 11:32:16;;;;;;;;;;;22.60;99.90;;;;;;5023852;28;19925;-73
2023/08/26 11:34:42;;;;;;;;;;;22.90;99.90;;;;;;5052549;28;19932;-75
2023/08/26 11:37:08;;;;;;;;;;;23.00;99.90;;;;;;5040348;28;19925;-80
2023/08/26 11:39:35;;;;;;;;;;;23.00;99.90;;;;;;5003964;28;19952;-80
2023/08/26 11:42:10;;;;;;;;;;;22.60;99.90;;;;;;5039324;28;20040;-80
2023/08/26 11:44:36;;;;;;;;;;;22.40;99.90;;;;;;5038606;28;19929;-80
2023/08/26 11:47:03;;;;;;;;;;;22.20;99.90;;;;;;5018136;28;19925;-80
2023/08/26 11:49:29;;;;;;;;;;;21.90;99.90;;;;;;5037892;28;19988;-80
2023/08/26 11:51:54;;;;;;;;;;;21.80;99.90;;;;;;5023092;28;19929;-80
2023/08/26 11:54:26;;;;;;;;;;;21.90;99.90;;;;;;5039391;28;19983;-80
2023/08/26 11:56:52;;;;;;;;;;;22.20;99.90;;;;;;5025552;28;20307;-80
2023/08/26 11:59:18;;;;;;;;;;;22.40;99.90;;;;;;5038336;28;19972;-79
2023/08/26 12:01:44;;;;;;;;;;;22.80;99.90;;;;;;5054181;28;19925;-79
2023/08/26 12:04:15;;;;;;;;;;;23.10;99.90;;;;;;5026272;28;19925;-80
2023/08/26 12:06:42;;;;;;;;;;;23.40;99.90;;;;;;5032798;28;19925;-80
2023/08/26 12:09:07;;;;;;;;;;;23.60;99.90;;;;;;5033119;28;19955;-81
2023/08/26 12:11:34;;;;;;;;;;;23.60;99.90;;;;;;5038537;28;19959;-80
2023/08/26 12:14:00;;;;;;;;;;;23.80;99.90;;;;;;5037648;28;20320;-80
2023/08/26 12:16:33;;;;;;;;;;;23.80;99.90;;;;;;5037204;28;19925;-81
2023/08/26 12:18:59;;;;;;;;;;;23.70;99.90;;;;;;5053828;28;20008;-81
2023/08/26 12:21:29;;;;;;;;;;;23.60;99.90;;;;;;5020614;28;19933;-80
2023/08/26 12:23:54;;;;;;;;;;;23.30;99.90;;;;;;5022020;28;19929;-81
2023/08/26 12:26:21;;;;;;;;;;;23.10;99.90;;;;;;5072050;28;19929;-80
2023/08/26 12:28:49;;;;;;;;;;;23.10;99.90;;;;;;5037998;28;20422;-80
2023/08/26 12:31:14;;;;;;;;;;;23.20;99.90;;;;;;5032575;28;20384;-81
2023/08/26 12:33:40;;;;;;;;;;;23.20;99.90;;;;;;5022395;28;20000;-80
2023/08/26 12:36:06;;;;;;;;;;;23.10;99.90;;;;;;5037054;28;19929;-79
2023/08/26 12:38:31;;;;;;;;;;;23.00;99.90;;;;;;5022010;28;19925;-80
2023/08/26 12:40:58;;;;;;;;;;;22.80;99.90;;;;;;5055357;28;19925;-80
2023/08/26 12:43:23;;;;;;;;;;;22.70;99.90;;;;;;5038464;28;19925;-79
2023/08/26 12:45:49;;;;;;;;;;;22.60;99.90;;;;;;5037633;28;20015;-80
2023/08/26 12:48:15;;;;;;;;;;;22.40;99.90;;;;;;5019226;28;19933;-79
2023/08/26 12:50:40;;;;;;;;;;;22.40;99.90;;;;;;5021044;28;19925;-80
2023/08/26 12:53:06;;;;;;;;;;;22.50;99.90;;;;;;5037749;28;19965;-80
2023/08/26 12:55:31;;;;;;;;;;;22.70;99.90;;;;;;5038355;28;19972;-80
2023/08/26 12:57:57;;;;;;;;;;;22.90;99.90;;;;;;5021873;28;20292;-82
2023/08/26 13:00:23;;;;;;;;;;;23.10;99.90;;;;;;5036841;28;19925;-80
2023/08/26 13:02:48;;;;;;;;;;;23.20;99.90;;;;;;5038537;28;19929;-81
2023/08/26 13:05:14;;;;;;;;;;;23.20;99.90;;;;;;5054682;28;19929;-82
2023/08/26 13:07:40;;;;;;;;;;;23.40;99.90;;;;;;5038098;28;20015;-77
2023/08/26 13:10:06;;;;;;;;;;;23.50;99.90;;;;;;5067975;28;19933;-80
2023/08/26 13:12:31;;;;;;;;;;;23.60;99.90;;;;;;5033958;28;20296;-80
2023/08/26 13:14:57;;;;;;;;;;;23.70;99.90;;;;;;5014047;28;19925;-80
2023/08/26 13:17:23;;;;;;;;;;;23.80;99.90;;;;;;5067911;28;19933;-83
2023/08/26 13:19:48;;;;;;;;;;;23.60;99.90;;;;;;5052112;28;19929;-82
2023/08/26 13:22:14;;;;;;;;;;;23.40;99.90;;;;;;5041408;28;19984;-79
2023/08/26 13:24:41;;;;;;;;;;;23.10;99.90;;;;;;5024415;28;19929;-80
2023/08/26 13:27:06;;;;;;;;;;;22.90;99.90;;;;;;5034308;28;19925;-80
2023/08/26 13:29:32;;;;;;;;;;;22.80;99.90;;;;;;5037552;28;19925;-80
2023/08/26 13:31:57;;;;;;;;;;;22.70;99.90;;;;;;5040732;28;19939;-82
2023/08/26 13:34:23;;;;;;;;;;;22.70;99.90;;;;;;5068513;28;19935;-83
2023/08/26 13:36:48;;;;;;;;;;;22.80;99.90;;;;;;5049830;28;19959;-82
2023/08/26 13:39:14;;;;;;;;;;;22.80;99.90;;;;;;5032837;28;19929;-80
2023/08/26 13:41:40;;;;;;;;;;;22.70;99.90;;;;;;5073907;28;19925;-80
2023/08/26 13:44:05;;;;;;;;;;;22.70;99.90;;;;;;5035712;28;19932;-82
2023/08/26 13:46:31;;;;;;;;;;;22.80;99.90;;;;;;5034854;28;19965;-81
2023/08/26 13:49:00;;;;;;;;;;;23.00;99.90;;;;;;5030190;28;19925;-82
2023/08/26 13:51:26;;;;;;;;;;;23.30;99.90;;;;;;5037520;28;19925;-81
2023/08/26 13:53:52;;;;;;;;;;;23.40;99.90;;;;;;5056643;28;19969;-82
2023/08/26 13:56:17;;;;;;;;;;;23.60;99.90;;;;;;5017043;28;19947;-82
2023/08/26 13:58:43;;;;;;;;;;;23.60;99.90;;;;;;5041603;28;19979;-81
2023/08/26 14:01:09;;;;;;;;;;;23.60;99.90;;;;;;5058780;28;19929;-82
2023/08/26 14:03:34;;;;;;;;;;;23.40;99.90;;;;;;5043170;28;19929;-81
2023/08/26 14:06:04;;;;;;;;;;;23.20;99.90;;;;;;5059522;28;19947;-82
2023/08/26 14:08:29;;;;;;;;;;;23.10;99.90;;;;;;5025120;28;19925;-81
2023/08/26 14:10:55;;;;;;;;;;;23.00;99.90;;;;;;5032428;28;20155;-81